sensor_id;sensor_type;location;lat;lon;timestamp;pressure;altitude;pressure_sealevel;temperature;humidity
65013;BME280;51715;39.432;-77.518;2022-10-03T00:02:09;100117.98;;;13.53;57.57
65013;BME280;51715;39.432;-77.518;2022-10-03T00:04:56;100119.68;;;13.61;57.03
65013;BME280;51715;39.432;-77.518;2022-10-03T00:07:49;100113.38;;;13.53;57.65
65013;BME280;51715;39.432;-77.518;2022-10-03T00:10:28;100119.02;;;14.08;55.38
65013;BME280;51715;39.432;-77.518;2022-10-03T00:13:12;100116.25;;;14.04;55.17
65013;BME280;51715;39.432;-77.518;2022-10-03T00:15:52;100121.27;;;13.55;55.84
65013;BME280;51715;39.432;-77.518;2022-10-03T00:18:33;100118.11;;;13.07;57.03
65013;BME280;51715;39.432;-77.518;2022-10-03T00:21:18;100117.53;;;13.54;56.16
65013;BME280;51715;39.432;-77.518;2022-10-03T00:23:57;100115.01;;;14.33;54.49
65013;BME280;51715;39.432;-77.518;2022-10-03T00:26:37;100126.36;;;14.08;54.92
65013;BME280;51715;39.432;-77.518;2022-10-03T00:29:59;100132.12;;;14.38;55.52
65013;BME280;51715;39.432;-77.518;2022-10-03T00:32:43;100136.01;;;13.92;55.65
65013;BME280;51715;39.432;-77.518;2022-10-03T00:35:23;100141.00;;;13.85;56.68
65013;BME280;51715;39.432;-77.518;2022-10-03T00:38:10;100151.80;;;13.97;55.62
65013;BME280;51715;39.432;-77.518;2022-10-03T00:41:32;100157.01;;;13.94;55.42
65013;BME280;51715;39.432;-77.518;2022-10-03T00:44:21;100166.18;;;13.49;56.85
65013;BME280;51715;39.432;-77.518;2022-10-03T00:49:23;100167.11;;;14.16;56.99
65013;BME280;51715;39.432;-77.518;2022-10-03T00:52:11;100168.76;;;13.94;55.78
65013;BME280;51715;39.432;-77.518;2022-10-03T00:54:54;100162.43;;;13.79;55.63
65013;BME280;51715;39.432;-77.518;2022-10-03T00:57:52;100163.32;;;14.27;53.15
65013;BME280;51715;39.432;-77.518;2022-10-03T01:00:29;100156.67;;;12.81;58.28
65013;BME280;51715;39.432;-77.518;2022-10-03T01:03:14;100163.19;;;12.67;59.24
65013;BME280;51715;39.432;-77.518;2022-10-03T01:06:00;100161.05;;;13.19;56.58
65013;BME280;51715;39.432;-77.518;2022-10-03T01:08:53;100159.89;;;12.90;57.27
65013;BME280;51715;39.432;-77.518;2022-10-03T01:11:35;100164.04;;;13.00;56.61
65013;BME280;51715;39.432;-77.518;2022-10-03T01:14:20;100162.08;;;14.24;54.35
65013;BME280;51715;39.432;-77.518;2022-10-03T01:17:03;100162.48;;;14.86;52.94
65013;BME280;51715;39.432;-77.518;2022-10-03T01:19:54;100162.28;;;15.30;51.69
65013;BME280;51715;39.432;-77.518;2022-10-03T01:22:44;100165.45;;;15.01;51.67
65013;BME280;51715;39.432;-77.518;2022-10-03T01:25:29;100163.66;;;14.32;52.92
65013;BME280;51715;39.432;-77.518;2022-10-03T01:28:17;100164.47;;;14.42;53.81
65013;BME280;51715;39.432;-77.518;2022-10-03T01:30:54;100172.33;;;14.66;52.63
65013;BME280;51715;39.432;-77.518;2022-10-03T01:33:29;100167.11;;;14.88;52.26
65013;BME280;51715;39.432;-77.518;2022-10-03T01:36:04;100166.92;;;15.69;51.36
65013;BME280;51715;39.432;-77.518;2022-10-03T01:38:46;100160.95;;;15.48;51.23
65013;BME280;51715;39.432;-77.518;2022-10-03T01:41:27;100155.09;;;15.31;50.68
65013;BME280;51715;39.432;-77.518;2022-10-03T01:44:03;100148.24;;;15.85;50.57
65013;BME280;51715;39.432;-77.518;2022-10-03T01:46:44;100145.05;;;15.68;50.75
65013;BME280;51715;39.432;-77.518;2022-10-03T01:49:20;100149.71;;;16.08;50.16
65013;BME280;51715;39.432;-77.518;2022-10-03T01:51:59;100144.92;;;15.71;50.82
65013;BME280;51715;39.432;-77.518;2022-10-03T01:54:39;100149.53;;;15.97;50.22
65013;BME280;51715;39.432;-77.518;2022-10-03T01:57:16;100151.52;;;15.61;51.10
65013;BME280;51715;39.432;-77.518;2022-10-03T01:59:53;100158.74;;;15.60;50.58
65013;BME280;51715;39.432;-77.518;2022-10-03T02:02:32;100161.62;;;16.21;50.04
65013;BME280;51715;39.432;-77.518;2022-10-03T02:05:07;100164.79;;;15.63;50.06
65013;BME280;51715;39.432;-77.518;2022-10-03T02:07:44;100167.78;;;15.29;51.92
65013;BME280;51715;39.432;-77.518;2022-10-03T02:10:24;100172.60;;;15.46;50.90
65013;BME280;51715;39.432;-77.518;2022-10-03T02:13:03;100177.83;;;15.75;50.61
65013;BME280;51715;39.432;-77.518;2022-10-03T02:15:45;100184.35;;;16.16;49.75
65013;BME280;51715;39.432;-77.518;2022-10-03T02:18:24;100186.02;;;16.19;49.50
65013;BME280;51715;39.432;-77.518;2022-10-03T02:21:09;100187.23;;;16.24;49.12
65013;BME280;51715;39.432;-77.518;2022-10-03T02:23:41;100187.89;;;16.22;48.75
65013;BME280;51715;39.432;-77.518;2022-10-03T02:26:34;100181.58;;;15.94;49.99
65013;BME280;51715;39.432;-77.518;2022-10-03T02:29:32;100195.04;;;15.37;50.98
65013;BME280;51715;39.432;-77.518;2022-10-03T02:32:45;100195.71;;;14.38;52.35
65013;BME280;51715;39.432;-77.518;2022-10-03T02:36:01;100202.19;;;13.90;54.08
65013;BME280;51715;39.432;-77.518;2022-10-03T02:39:00;100191.68;;;15.01;52.84
65013;BME280;51715;39.432;-77.518;2022-10-03T02:42:15;100205.38;;;13.42;55.95
65013;BME280;51715;39.432;-77.518;2022-10-03T02:45:35;100202.73;;;14.88;53.00
65013;BME280;51715;39.432;-77.518;2022-10-03T02:48:48;100200.59;;;15.20;51.39
65013;BME280;51715;39.432;-77.518;2022-10-03T02:51:48;100196.82;;;15.28;51.09
65013;BME280;51715;39.432;-77.518;2022-10-03T02:54:46;100193.09;;;15.75;50.16
65013;BME280;51715;39.432;-77.518;2022-10-03T02:57:40;100187.07;;;16.08;49.72
65013;BME280;51715;39.432;-77.518;2022-10-03T03:00:21;100193.59;;;15.88;49.68
65013;BME280;51715;39.432;-77.518;2022-10-03T03:03:25;100190.08;;;15.91;49.45
65013;BME280;51715;39.432;-77.518;2022-10-03T03:06:22;100190.79;;;15.77;49.55
65013;BME280;51715;39.432;-77.518;2022-10-03T03:09:21;100195.90;;;14.84;52.05
65013;BME280;51715;39.432;-77.518;2022-10-03T03:14:27;100193.48;;;14.44;53.76
65013;BME280;51715;39.432;-77.518;2022-10-03T03:17:21;100190.16;;;14.80;51.62
65013;BME280;51715;39.432;-77.518;2022-10-03T03:20:05;100189.26;;;15.13;51.31
65013;BME280;51715;39.432;-77.518;2022-10-03T03:22:43;100182.77;;;14.77;52.33
65013;BME280;51715;39.432;-77.518;2022-10-03T03:25:29;100188.49;;;15.03;51.20
65013;BME280;51715;39.432;-77.518;2022-10-03T03:28:10;100181.89;;;14.63;51.31
65013;BME280;51715;39.432;-77.518;2022-10-03T03:30:50;100182.51;;;14.60;51.36
65013;BME280;51715;39.432;-77.518;2022-10-03T03:33:27;100180.45;;;15.17;50.17
65013;BME280;51715;39.432;-77.518;2022-10-03T03:36:14;100178.37;;;15.24;50.57
65013;BME280;51715;39.432;-77.518;2022-10-03T03:39:04;100176.96;;;14.34;51.94
65013;BME280;51715;39.432;-77.518;2022-10-03T03:41:50;100173.27;;;13.92;52.26
65013;BME280;51715;39.432;-77.518;2022-10-03T03:44:41;100165.55;;;13.00;54.75
65013;BME280;51715;39.432;-77.518;2022-10-03T03:47:28;100165.49;;;12.79;55.07
65013;BME280;51715;39.432;-77.518;2022-10-03T03:50:15;100166.33;;;13.50;52.95
65013;BME280;51715;39.432;-77.518;2022-10-03T03:53:02;100161.58;;;14.60;51.18
65013;BME280;51715;39.432;-77.518;2022-10-03T03:55:49;100157.62;;;13.98;50.80
65013;BME280;51715;39.432;-77.518;2022-10-03T03:58:32;100156.49;;;12.14;55.63
65013;BME280;51715;39.432;-77.518;2022-10-03T04:04:11;100163.27;;;12.79;51.84
65013;BME280;51715;39.432;-77.518;2022-10-03T04:06:50;100157.66;;;13.73;49.21
65013;BME280;51715;39.432;-77.518;2022-10-03T04:09:43;100158.40;;;13.18;50.01
65013;BME280;51715;39.432;-77.518;2022-10-03T04:12:26;100161.01;;;13.90;50.50
65013;BME280;51715;39.432;-77.518;2022-10-03T04:15:26;100161.04;;;13.68;51.32
65013;BME280;51715;39.432;-77.518;2022-10-03T04:18:25;100169.03;;;13.31;53.26
65013;BME280;51715;39.432;-77.518;2022-10-03T04:21:13;100174.48;;;12.80;53.47
65013;BME280;51715;39.432;-77.518;2022-10-03T04:23:59;100170.92;;;12.50;52.31
65013;BME280;51715;39.432;-77.518;2022-10-03T04:26:45;100175.67;;;12.80;53.35
65013;BME280;51715;39.432;-77.518;2022-10-03T04:29:39;100173.03;;;12.93;53.61
65013;BME280;51715;39.432;-77.518;2022-10-03T04:32:43;100178.01;;;12.91;53.28
65013;BME280;51715;39.432;-77.518;2022-10-03T04:38:36;100174.47;;;13.00;52.06
65013;BME280;51715;39.432;-77.518;2022-10-03T04:41:17;100179.57;;;12.56;50.61
65013;BME280;51715;39.432;-77.518;2022-10-03T04:43:53;100182.70;;;13.89;49.61
65013;BME280;51715;39.432;-77.518;2022-10-03T04:46:30;100190.33;;;13.32;50.16
65013;BME280;51715;39.432;-77.518;2022-10-03T04:49:09;100187.99;;;13.12;49.14
65013;BME280;51715;39.432;-77.518;2022-10-03T04:52:20;100188.73;;;13.51;47.44
65013;BME280;51715;39.432;-77.518;2022-10-03T04:55:00;100187.10;;;14.37;47.46
65013;BME280;51715;39.432;-77.518;2022-10-03T04:57:36;100187.95;;;13.29;48.63
65013;BME280;51715;39.432;-77.518;2022-10-03T05:00:21;100187.16;;;14.04;47.33
65013;BME280;51715;39.432;-77.518;2022-10-03T05:02:56;100187.51;;;14.34;47.44
65013;BME280;51715;39.432;-77.518;2022-10-03T05:05:49;100186.31;;;13.95;46.88
65013;BME280;51715;39.432;-77.518;2022-10-03T05:08:29;100176.12;;;14.13;47.88
65013;BME280;51715;39.432;-77.518;2022-10-03T05:11:08;100181.21;;;13.54;48.89
65013;BME280;51715;39.432;-77.518;2022-10-03T05:13:52;100180.25;;;12.57;48.80
65013;BME280;51715;39.432;-77.518;2022-10-03T05:16:35;100170.21;;;13.39;48.74
65013;BME280;51715;39.432;-77.518;2022-10-03T05:19:33;100169.27;;;12.83;48.70
65013;BME280;51715;39.432;-77.518;2022-10-03T05:22:09;100172.63;;;13.01;47.59
65013;BME280;51715;39.432;-77.518;2022-10-03T05:24:51;100165.64;;;12.78;47.01
65013;BME280;51715;39.432;-77.518;2022-10-03T05:27:28;100165.28;;;12.78;48.91
65013;BME280;51715;39.432;-77.518;2022-10-03T05:30:06;100164.34;;;12.85;48.47
65013;BME280;51715;39.432;-77.518;2022-10-03T05:32:41;100164.02;;;13.50;46.67
65013;BME280;51715;39.432;-77.518;2022-10-03T05:35:34;100165.55;;;14.36;45.63
65013;BME280;51715;39.432;-77.518;2022-10-03T05:38:24;100171.72;;;14.26;46.53
65013;BME280;51715;39.432;-77.518;2022-10-03T05:41:02;100168.46;;;13.81;46.63
65013;BME280;51715;39.432;-77.518;2022-10-03T05:43:45;100164.55;;;13.82;47.48
65013;BME280;51715;39.432;-77.518;2022-10-03T05:46:21;100161.10;;;14.24;45.82
65013;BME280;51715;39.432;-77.518;2022-10-03T05:49:07;100162.69;;;14.25;46.39
65013;BME280;51715;39.432;-77.518;2022-10-03T05:52:12;100163.39;;;14.52;45.78
65013;BME280;51715;39.432;-77.518;2022-10-03T05:54:55;100165.85;;;13.96;45.85
65013;BME280;51715;39.432;-77.518;2022-10-03T05:58:01;100162.56;;;12.77;49.27
65013;BME280;51715;39.432;-77.518;2022-10-03T06:00:49;100168.71;;;13.33;49.77
65013;BME280;51715;39.432;-77.518;2022-10-03T06:03:49;100173.14;;;14.11;44.78
65013;BME280;51715;39.432;-77.518;2022-10-03T06:06:38;100172.45;;;14.02;44.51
65013;BME280;51715;39.432;-77.518;2022-10-03T06:09:29;100162.97;;;13.20;45.76
65013;BME280;51715;39.432;-77.518;2022-10-03T06:12:05;100167.71;;;13.85;46.44
65013;BME280;51715;39.432;-77.518;2022-10-03T06:15:18;100159.55;;;13.09;45.53
65013;BME280;51715;39.432;-77.518;2022-10-03T06:17:57;100161.37;;;13.21;44.76
65013;BME280;51715;39.432;-77.518;2022-10-03T06:23:09;100164.67;;;13.67;44.66
65013;BME280;51715;39.432;-77.518;2022-10-03T06:26:11;100158.56;;;12.97;48.21
65013;BME280;51715;39.432;-77.518;2022-10-03T06:29:02;100163.87;;;13.40;46.06
65013;BME280;51715;39.432;-77.518;2022-10-03T06:32:00;100167.54;;;14.25;46.28
65013;BME280;51715;39.432;-77.518;2022-10-03T06:35:04;100166.12;;;14.38;45.14
65013;BME280;51715;39.432;-77.518;2022-10-03T06:38:37;100163.50;;;14.13;45.08
65013;BME280;51715;39.432;-77.518;2022-10-03T06:41:30;100165.14;;;13.77;45.88
65013;BME280;51715;39.432;-77.518;2022-10-03T06:44:13;100166.21;;;14.38;43.08
65013;BME280;51715;39.432;-77.518;2022-10-03T06:47:26;100169.99;;;14.81;43.38
65013;BME280;51715;39.432;-77.518;2022-10-03T06:50:16;100175.06;;;14.08;45.94
65013;BME280;51715;39.432;-77.518;2022-10-03T06:53:45;100172.91;;;13.43;45.71
65013;BME280;51715;39.432;-77.518;2022-10-03T06:57:15;100168.55;;;13.21;44.92
65013;BME280;51715;39.432;-77.518;2022-10-03T06:59:59;100165.96;;;13.12;44.85
65013;BME280;51715;39.432;-77.518;2022-10-03T07:02:55;100166.44;;;13.31;46.41
65013;BME280;51715;39.432;-77.518;2022-10-03T07:05:58;100161.18;;;13.13;45.81
65013;BME280;51715;39.432;-77.518;2022-10-03T07:10:53;100163.40;;;13.78;43.53
65013;BME280;51715;39.432;-77.518;2022-10-03T07:16:48;100161.91;;;14.16;43.24
65013;BME280;51715;39.432;-77.518;2022-10-03T07:20:10;100158.93;;;12.82;46.78
65013;BME280;51715;39.432;-77.518;2022-10-03T07:23:16;100161.86;;;12.69;45.52
65013;BME280;51715;39.432;-77.518;2022-10-03T07:27:09;100168.98;;;13.89;43.98
65013;BME280;51715;39.432;-77.518;2022-10-03T07:30:02;100168.68;;;13.36;44.39
65013;BME280;51715;39.432;-77.518;2022-10-03T07:32:43;100174.23;;;14.35;43.32
65013;BME280;51715;39.432;-77.518;2022-10-03T07:35:37;100173.30;;;12.06;47.57
65013;BME280;51715;39.432;-77.518;2022-10-03T07:38:36;100165.46;;;12.32;46.36
65013;BME280;51715;39.432;-77.518;2022-10-03T07:41:20;100167.47;;;12.68;45.45
65013;BME280;51715;39.432;-77.518;2022-10-03T07:44:12;100163.36;;;13.34;44.98
65013;BME280;51715;39.432;-77.518;2022-10-03T07:49:11;100167.44;;;13.67;43.96
65013;BME280;51715;39.432;-77.518;2022-10-03T07:51:58;100167.75;;;13.76;43.63
65013;BME280;51715;39.432;-77.518;2022-10-03T07:54:54;100174.25;;;12.64;46.14
65013;BME280;51715;39.432;-77.518;2022-10-03T07:57:38;100171.76;;;12.45;46.64
65013;BME280;51715;39.432;-77.518;2022-10-03T08:00:19;100178.67;;;12.34;45.64
65013;BME280;51715;39.432;-77.518;2022-10-03T08:03:27;100178.27;;;13.22;45.38
65013;BME280;51715;39.432;-77.518;2022-10-03T08:06:15;100181.33;;;13.47;44.69
65013;BME280;51715;39.432;-77.518;2022-10-03T08:09:35;100181.06;;;13.76;43.86
65013;BME280;51715;39.432;-77.518;2022-10-03T08:12:30;100186.99;;;13.46;46.96
65013;BME280;51715;39.432;-77.518;2022-10-03T08:15:08;100183.44;;;13.10;46.13
65013;BME280;51715;39.432;-77.518;2022-10-03T08:18:09;100190.00;;;13.66;45.18
65013;BME280;51715;39.432;-77.518;2022-10-03T08:20:50;100198.06;;;14.10;44.45
65013;BME280;51715;39.432;-77.518;2022-10-03T08:23:39;100201.61;;;13.89;45.04
65013;BME280;51715;39.432;-77.518;2022-10-03T08:26:17;100190.20;;;13.19;46.16
65013;BME280;51715;39.432;-77.518;2022-10-03T08:28:59;100181.29;;;13.08;47.71
65013;BME280;51715;39.432;-77.518;2022-10-03T08:33:52;100181.01;;;14.01;45.78
65013;BME280;51715;39.432;-77.518;2022-10-03T08:37:05;100188.90;;;13.30;43.91
65013;BME280;51715;39.432;-77.518;2022-10-03T08:39:54;100181.27;;;12.44;44.27
65013;BME280;51715;39.432;-77.518;2022-10-03T08:42:49;100185.74;;;12.51;43.01
65013;BME280;51715;39.432;-77.518;2022-10-03T08:46:49;100183.43;;;13.35;39.97
65013;BME280;51715;39.432;-77.518;2022-10-03T08:49:56;100191.62;;;12.83;42.12
65013;BME280;51715;39.432;-77.518;2022-10-03T08:52:38;100209.40;;;12.26;41.00
65013;BME280;51715;39.432;-77.518;2022-10-03T08:55:37;100204.97;;;12.48;41.77
65013;BME280;51715;39.432;-77.518;2022-10-03T08:58:25;100197.38;;;12.37;43.27
65013;BME280;51715;39.432;-77.518;2022-10-03T09:01:33;100202.80;;;11.31;45.16
65013;BME280;51715;39.432;-77.518;2022-10-03T09:04:39;100204.40;;;10.63;42.40
65013;BME280;51715;39.432;-77.518;2022-10-03T09:07:23;100211.81;;;12.17;41.63
65013;BME280;51715;39.432;-77.518;2022-10-03T09:10:36;100217.73;;;11.49;39.96
65013;BME280;51715;39.432;-77.518;2022-10-03T09:13:37;100218.14;;;12.02;39.83
65013;BME280;51715;39.432;-77.518;2022-10-03T09:16:34;100218.69;;;11.99;39.77
65013;BME280;51715;39.432;-77.518;2022-10-03T09:19:23;100225.49;;;12.40;39.26
65013;BME280;51715;39.432;-77.518;2022-10-03T09:22:10;100233.19;;;11.64;40.83
65013;BME280;51715;39.432;-77.518;2022-10-03T09:25:04;100230.83;;;12.33;40.56
65013;BME280;51715;39.432;-77.518;2022-10-03T09:28:25;100235.45;;;12.71;38.71
65013;BME280;51715;39.432;-77.518;2022-10-03T09:31:11;100242.63;;;12.58;39.65
65013;BME280;51715;39.432;-77.518;2022-10-03T09:34:08;100240.49;;;12.66;39.66
65013;BME280;51715;39.432;-77.518;2022-10-03T09:37:33;100245.27;;;12.01;41.76
65013;BME280;51715;39.432;-77.518;2022-10-03T09:42:58;100245.72;;;12.18;42.04
65013;BME280;51715;39.432;-77.518;2022-10-03T09:45:49;100246.74;;;12.40;39.70
65013;BME280;51715;39.432;-77.518;2022-10-03T09:48:34;100249.39;;;12.81;39.33
65013;BME280;51715;39.432;-77.518;2022-10-03T09:51:22;100256.06;;;12.14;42.00
65013;BME280;51715;39.432;-77.518;2022-10-03T09:54:20;100253.49;;;11.50;39.18
65013;BME280;51715;39.432;-77.518;2022-10-03T09:57:32;100255.44;;;12.00;39.35
65013;BME280;51715;39.432;-77.518;2022-10-03T10:00:16;100267.67;;;11.56;38.06
65013;BME280;51715;39.432;-77.518;2022-10-03T10:03:06;100272.32;;;11.81;39.70
65013;BME280;51715;39.432;-77.518;2022-10-03T10:05:57;100274.55;;;11.80;38.22
65013;BME280;51715;39.432;-77.518;2022-10-03T10:08:48;100283.03;;;11.36;39.31
65013;BME280;51715;39.432;-77.518;2022-10-03T10:11:43;100289.13;;;11.76;37.73
65013;BME280;51715;39.432;-77.518;2022-10-03T10:14:26;100293.67;;;11.08;36.65
65013;BME280;51715;39.432;-77.518;2022-10-03T10:19:42;100300.38;;;11.73;37.32
65013;BME280;51715;39.432;-77.518;2022-10-03T10:22:29;100307.01;;;12.44;36.49
65013;BME280;51715;39.432;-77.518;2022-10-03T10:27:51;100308.23;;;11.83;37.27
65013;BME280;51715;39.432;-77.518;2022-10-03T10:30:46;100320.20;;;10.82;38.51
65013;BME280;51715;39.432;-77.518;2022-10-03T10:38:22;100321.03;;;12.61;38.41
65013;BME280;51715;39.432;-77.518;2022-10-03T10:45:38;100321.02;;;13.69;36.79
65013;BME280;51715;39.432;-77.518;2022-10-03T10:51:57;100314.89;;;13.67;37.67
65013;BME280;51715;39.432;-77.518;2022-10-03T10:55:04;100316.85;;;12.97;35.33
65013;BME280;51715;39.432;-77.518;2022-10-03T11:00:14;100318.17;;;13.41;37.00
65013;BME280;51715;39.432;-77.518;2022-10-03T11:03:40;100319.83;;;13.00;36.25
65013;BME280;51715;39.432;-77.518;2022-10-03T11:06:39;100323.98;;;13.44;36.35
65013;BME280;51715;39.432;-77.518;2022-10-03T11:09:29;100324.48;;;13.69;36.48
65013;BME280;51715;39.432;-77.518;2022-10-03T11:13:34;100324.17;;;13.71;36.76
65013;BME280;51715;39.432;-77.518;2022-10-03T11:17:29;100324.50;;;13.42;36.34
65013;BME280;51715;39.432;-77.518;2022-10-03T11:21:42;100327.76;;;12.24;39.18
65013;BME280;51715;39.432;-77.518;2022-10-03T11:24:40;100330.37;;;12.50;38.06
65013;BME280;51715;39.432;-77.518;2022-10-03T11:28:08;100329.03;;;12.78;38.07
65013;BME280;51715;39.432;-77.518;2022-10-03T11:31:04;100331.25;;;12.78;37.88
65013;BME280;51715;39.432;-77.518;2022-10-03T11:36:05;100325.61;;;12.98;38.80
65013;BME280;51715;39.432;-77.518;2022-10-03T11:38:43;100331.44;;;11.92;36.28
65013;BME280;51715;39.432;-77.518;2022-10-03T11:41:24;100332.63;;;12.24;37.78
65013;BME280;51715;39.432;-77.518;2022-10-03T11:44:22;100333.82;;;12.53;38.71
65013;BME280;51715;39.432;-77.518;2022-10-03T11:47:10;100333.52;;;13.14;38.20
65013;BME280;51715;39.432;-77.518;2022-10-03T11:49:59;100338.86;;;12.68;37.95
65013;BME280;51715;39.432;-77.518;2022-10-03T11:52:39;100339.54;;;13.08;37.65
65013;BME280;51715;39.432;-77.518;2022-10-03T11:55:26;100344.16;;;13.07;37.92
65013;BME280;51715;39.432;-77.518;2022-10-03T11:58:09;100357.60;;;12.56;39.37
65013;BME280;51715;39.432;-77.518;2022-10-03T12:00:46;100365.33;;;12.60;40.05
65013;BME280;51715;39.432;-77.518;2022-10-03T12:03:23;100360.26;;;12.70;38.94
65013;BME280;51715;39.432;-77.518;2022-10-03T12:05:56;100363.88;;;12.28;40.22
65013;BME280;51715;39.432;-77.518;2022-10-03T12:08:29;100362.34;;;12.54;36.85
65013;BME280;51715;39.432;-77.518;2022-10-03T12:11:05;100368.43;;;12.89;37.10
65013;BME280;51715;39.432;-77.518;2022-10-03T12:13:41;100364.43;;;13.10;36.80
65013;BME280;51715;39.432;-77.518;2022-10-03T12:16:19;100366.67;;;13.22;35.77
65013;BME280;51715;39.432;-77.518;2022-10-03T12:18:54;100370.60;;;12.79;36.08
65013;BME280;51715;39.432;-77.518;2022-10-03T12:21:34;100371.49;;;12.84;37.41
65013;BME280;51715;39.432;-77.518;2022-10-03T12:24:26;100371.65;;;12.79;38.40
65013;BME280;51715;39.432;-77.518;2022-10-03T12:27:02;100369.24;;;13.08;36.77
65013;BME280;51715;39.432;-77.518;2022-10-03T12:29:37;100374.62;;;12.63;38.00
65013;BME280;51715;39.432;-77.518;2022-10-03T12:32:17;100372.23;;;12.57;36.59
65013;BME280;51715;39.432;-77.518;2022-10-03T12:34:54;100369.39;;;13.35;36.28
65013;BME280;51715;39.432;-77.518;2022-10-03T12:38:06;100369.88;;;13.45;36.61
65013;BME280;51715;39.432;-77.518;2022-10-03T12:40:44;100373.93;;;13.37;36.81
65013;BME280;51715;39.432;-77.518;2022-10-03T12:43:27;100371.86;;;12.77;36.39
65013;BME280;51715;39.432;-77.518;2022-10-03T12:46:02;100371.99;;;13.22;37.65
65013;BME280;51715;39.432;-77.518;2022-10-03T12:48:39;100374.96;;;13.06;35.84
65013;BME280;51715;39.432;-77.518;2022-10-03T12:51:20;100379.49;;;13.49;38.72
65013;BME280;51715;39.432;-77.518;2022-10-03T12:53:59;100389.36;;;13.19;37.68
65013;BME280;51715;39.432;-77.518;2022-10-03T12:56:41;100394.45;;;13.09;37.53
65013;BME280;51715;39.432;-77.518;2022-10-03T12:59:18;100396.86;;;12.79;38.13
65013;BME280;51715;39.432;-77.518;2022-10-03T13:02:05;100398.86;;;12.92;38.34
65013;BME280;51715;39.432;-77.518;2022-10-03T13:04:44;100400.95;;;13.50;37.62
65013;BME280;51715;39.432;-77.518;2022-10-03T13:07:26;100404.12;;;13.19;35.89
65013;BME280;51715;39.432;-77.518;2022-10-03T13:10:08;100399.79;;;13.48;37.42
65013;BME280;51715;39.432;-77.518;2022-10-03T13:12:44;100397.22;;;14.13;36.86
65013;BME280;51715;39.432;-77.518;2022-10-03T13:15:42;100396.93;;;13.82;38.02
65013;BME280;51715;39.432;-77.518;2022-10-03T13:18:22;100397.44;;;13.98;37.22
65013;BME280;51715;39.432;-77.518;2022-10-03T13:21:00;100402.93;;;13.68;36.86
65013;BME280;51715;39.432;-77.518;2022-10-03T13:23:39;100410.33;;;13.90;38.60
65013;BME280;51715;39.432;-77.518;2022-10-03T13:26:11;100409.52;;;11.97;36.54
65013;BME280;51715;39.432;-77.518;2022-10-03T13:29:10;100398.22;;;12.01;37.43
65013;BME280;51715;39.432;-77.518;2022-10-03T13:31:52;100374.04;;;12.85;37.21
65013;BME280;51715;39.432;-77.518;2022-10-03T13:34:24;100369.64;;;13.25;37.86
65013;BME280;51715;39.432;-77.518;2022-10-03T13:36:56;100378.31;;;13.59;35.92
65013;BME280;51715;39.432;-77.518;2022-10-03T13:39:36;100374.88;;;13.16;34.29
65013;BME280;51715;39.432;-77.518;2022-10-03T13:42:13;100391.15;;;13.02;38.19
65013;BME280;51715;39.432;-77.518;2022-10-03T13:44:50;100390.89;;;12.69;37.73
65013;BME280;51715;39.432;-77.518;2022-10-03T13:47:40;100392.69;;;13.43;38.47
65013;BME280;51715;39.432;-77.518;2022-10-03T13:50:17;100393.24;;;13.51;37.25
65013;BME280;51715;39.432;-77.518;2022-10-03T13:52:52;100394.77;;;13.82;37.41
65013;BME280;51715;39.432;-77.518;2022-10-03T13:55:31;100392.97;;;14.51;37.34
65013;BME280;51715;39.432;-77.518;2022-10-03T13:58:22;100391.21;;;14.99;37.21
65013;BME280;51715;39.432;-77.518;2022-10-03T14:01:06;100389.53;;;14.94;37.19
65013;BME280;51715;39.432;-77.518;2022-10-03T14:03:45;100401.60;;;15.07;35.78
65013;BME280;51715;39.432;-77.518;2022-10-03T14:06:25;100404.28;;;14.87;36.46
65013;BME280;51715;39.432;-77.518;2022-10-03T14:09:10;100408.45;;;14.38;35.62
65013;BME280;51715;39.432;-77.518;2022-10-03T14:11:49;100406.07;;;15.03;36.40
65013;BME280;51715;39.432;-77.518;2022-10-03T14:15:09;100401.87;;;14.77;36.64
65013;BME280;51715;39.432;-77.518;2022-10-03T14:17:44;100402.50;;;15.16;34.89
65013;BME280;51715;39.432;-77.518;2022-10-03T14:20:24;100406.51;;;15.40;33.27
65013;BME280;51715;39.432;-77.518;2022-10-03T14:23:06;100404.93;;;14.64;33.39
65013;BME280;51715;39.432;-77.518;2022-10-03T14:25:41;100417.11;;;12.37;36.44
65013;BME280;51715;39.432;-77.518;2022-10-03T14:28:17;100419.49;;;13.23;35.52
65013;BME280;51715;39.432;-77.518;2022-10-03T14:30:58;100413.60;;;13.67;34.99
65013;BME280;51715;39.432;-77.518;2022-10-03T14:33:35;100409.91;;;13.07;35.44
65013;BME280;51715;39.432;-77.518;2022-10-03T14:36:17;100411.62;;;13.84;37.78
65013;BME280;51715;39.432;-77.518;2022-10-03T14:39:00;100419.97;;;13.89;37.79
65013;BME280;51715;39.432;-77.518;2022-10-03T14:41:43;100411.14;;;14.49;37.42
65013;BME280;51715;39.432;-77.518;2022-10-03T14:44:17;100407.56;;;14.84;36.44
65013;BME280;51715;39.432;-77.518;2022-10-03T14:46:52;100403.13;;;14.34;37.35
65013;BME280;51715;39.432;-77.518;2022-10-03T14:49:26;100403.27;;;14.33;37.65
65013;BME280;51715;39.432;-77.518;2022-10-03T14:52:01;100397.22;;;14.48;40.63
65013;BME280;51715;39.432;-77.518;2022-10-03T14:54:31;100388.62;;;14.31;38.86
65013;BME280;51715;39.432;-77.518;2022-10-03T14:57:00;100393.36;;;14.32;38.21
65013;BME280;51715;39.432;-77.518;2022-10-03T14:59:40;100388.23;;;14.83;35.49
65013;BME280;51715;39.432;-77.518;2022-10-03T15:02:28;100386.62;;;15.39;35.04
65013;BME280;51715;39.432;-77.518;2022-10-03T15:05:03;100387.55;;;15.71;34.78
65013;BME280;51715;39.432;-77.518;2022-10-03T15:07:37;100388.57;;;16.50;32.27
65013;BME280;51715;39.432;-77.518;2022-10-03T15:10:09;100386.22;;;15.81;34.02